Time;durP1;ratioP1;P1;durP2;ratioP2;P2;SDS_P1;SDS_P2;PMS_P1;PMS_P2;Temp;Humidity;BMP_temperature;BMP_pressure;BME280_temperature;BME280_humidity;BME280_pressure;Samples;Min_cycle;Max_cycle;Signal;HPM_P1;HPM_P2
2021/11/19 00:01:37;;;;;;;38.47;23.75;;;153.70;2252.80;;;;;;5075821;28;20032;-76
2021/11/19 00:04:04;;;;;;;41.67;25.35;;;153.70;2252.80;;;;;;5094653;28;20379;-76
2021/11/19 00:06:30;;;;;;;40.03;23.13;;;153.70;2252.80;;;;;;5075694;28;20062;-76
2021/11/19 00:08:56;;;;;;;42.13;24.27;;;153.70;2252.80;;;;;;5094312;28;20039;-76
2021/11/19 00:11:26;;;;;;;42.63;24.00;;;153.70;2252.80;;;;;;5075240;28;20394;-76
2021/11/19 00:13:52;;;;;;;41.60;26.42;;;153.70;2252.80;;;;;;5076184;28;20028;-76
2021/11/19 00:16:19;;;;;;;36.30;23.50;;;153.70;2252.80;;;;;;5077736;28;20020;-76
2021/11/19 00:18:46;;;;;;;36.70;24.63;;;153.60;2252.80;;;;;;5075736;28;20165;-76
2021/11/19 00:21:12;;;;;;;33.92;24.52;;;153.70;2252.80;;;;;;5094241;28;20498;-76
2021/11/19 00:23:40;;;;;;;38.55;24.00;;;153.60;2252.80;;;;;;5092842;28;20129;-76
2021/11/19 00:26:06;;;;;;;36.85;24.42;;;128.90;2252.80;;;;;;5094383;28;20309;-76
2021/11/19 00:28:32;;;;;;;37.10;23.45;;;128.70;2252.80;;;;;;5075568;28;20081;-76
2021/11/19 00:30:59;;;;;;;38.33;25.35;;;128.70;2252.80;;;;;;5075875;28;20417;-76
2021/11/19 00:33:25;;;;;;;37.42;23.58;;;128.70;2252.80;;;;;;5093597;28;20016;-76
2021/11/19 00:35:51;;;;;;;35.60;22.73;;;128.60;2252.80;;;;;;5075935;28;20028;-76
2021/11/19 00:38:18;;;;;;;36.25;23.52;;;128.70;2252.80;;;;;;5076036;28;20566;-76
2021/11/19 00:40:54;;;;;;;37.05;23.75;;;128.60;2252.80;;;;;;5075061;28;20024;-76
2021/11/19 00:43:21;;;;;;;37.42;23.88;;;128.50;2252.80;;;;;;5075885;28;20043;-76
2021/11/19 00:45:48;;;;;;;37.70;23.25;;;128.50;2252.80;;;;;;5093304;28;20056;-76
2021/11/19 00:48:14;;;;;;;41.03;24.25;;;128.50;2252.80;;;;;;5075644;28;20561;-77
2021/11/19 00:50:48;;;;;;;36.67;23.95;;;128.50;2252.80;;;;;;5075313;28;20024;-76
2021/11/19 00:53:14;;;;;;;32.08;20.92;;;128.50;2252.80;;;;;;5074925;28;20073;-76
2021/11/19 00:55:40;;;;;;;35.30;22.38;;;128.40;2252.80;;;;;;5075388;28;20024;-76
2021/11/19 00:58:06;;;;;;;36.70;24.40;;;128.40;2252.80;;;;;;5074999;28;20115;-75
2021/11/19 01:00:42;;;;;;;43.20;27.05;;;128.40;2252.80;;;;;;5093757;28;20024;-75
2021/11/19 01:03:08;;;;;;;;;;;128.30;2252.80;;;;;;5074892;28;20093;-75
2021/11/19 01:05:34;;;;;;;39.10;25.00;;;128.30;2252.80;;;;;;5092371;28;19908;-75
2021/11/19 01:08:00;;;;;;;34.05;23.05;;;128.30;2252.80;;;;;;5092897;28;20085;-75
2021/11/19 01:10:31;;;;;;;41.35;23.15;;;128.30;2252.80;;;;;;5093600;28;20028;-76
2021/11/19 01:12:58;;;;;;;39.00;25.85;;;128.30;2252.80;;;;;;5092330;28;20028;-76
2021/11/19 01:15:35;;;;;;;40.45;24.13;;;128.20;2252.80;;;;;;5074481;28;20084;-76
2021/11/19 01:18:09;;;;;;;39.60;23.83;;;128.30;2252.80;;;;;;5093724;28;20497;-76
2021/11/19 01:20:47;;;;;;;34.58;21.77;;;128.20;2252.80;;;;;;5092029;28;20078;-76
2021/11/19 01:23:15;;;;;;;35.33;21.80;;;128.20;2252.80;;;;;;5074706;28;20036;-76
2021/11/19 01:25:45;;;;;;;40.40;24.02;;;128.10;2252.80;;;;;;5075913;28;20028;-76
2021/11/19 01:28:12;;;;;;;40.85;22.95;;;128.10;2252.80;;;;;;5074675;28;20028;-76
2021/11/19 01:30:43;;;;;;;39.70;23.15;;;128.20;2252.80;;;;;;5093365;28;20498;-76
2021/11/19 01:33:09;;;;;;;37.75;24.58;;;128.00;2252.80;;;;;;5074619;28;20025;-76
2021/11/19 01:35:36;;;;;;;44.70;26.25;;;128.00;2252.80;;;;;;5093153;28;20024;-76
2021/11/19 01:38:02;;;;;;;41.13;25.52;;;103.20;2227.20;;;;;;5075069;28;20552;-76
2021/11/19 01:40:31;;;;;;;39.95;24.67;;;128.00;2252.80;;;;;;5074773;28;20055;-76
2021/11/19 01:43:02;;;;;;;42.13;25.17;;;103.30;2227.20;;;;;;5075013;28;20079;-76
2021/11/19 01:45:36;;;;;;;37.63;25.30;;;103.30;2227.20;;;;;;5074800;28;20097;-76
2021/11/19 01:48:05;;;;;;;43.42;25.42;;;128.00;2252.80;;;;;;5075113;28;20050;-76
2021/11/19 01:50:49;;;;;;;38.47;22.67;;;128.00;2252.80;;;;;;5074801;28;20028;-77
2021/11/19 01:53:53;;;;;;;37.75;23.58;;;128.00;2252.80;;;;;;5074320;28;20455;-76
2021/11/19 01:56:47;;;;;;;37.72;23.58;;;103.30;2227.20;;;;;;5030586;28;20037;-76
2021/11/19 01:59:16;;;;;;;38.95;24.05;;;103.30;2227.20;;;;;;5014545;28;20106;-76
2021/11/19 02:01:44;;;;;;;37.45;23.73;;;103.30;2227.20;;;;;;5030413;28;20125;-76
2021/11/19 02:04:14;;;;;;;37.20;23.98;;;103.30;2227.20;;;;;;5030373;28;20059;-76
2021/11/19 02:06:50;;;;;;;39.80;23.98;;;103.20;2227.20;;;;;;5013986;28;20118;-76
2021/11/19 02:09:41;;;;;;;38.35;25.35;;;103.20;2227.20;;;;;;5025957;28;20600;-76
2021/11/19 02:12:32;;;;;;;33.05;22.40;;;103.20;2227.20;;;;;;5029762;28;20033;-76
2021/11/19 02:15:09;;;;;;;40.13;22.98;;;103.30;2227.20;;;;;;4952515;28;20073;-77
2021/11/19 02:17:36;;;;;;;44.08;25.60;;;103.20;2227.20;;;;;;4952806;28;20046;-76
2021/11/19 02:20:13;;;;;;;43.95;26.08;;;103.20;2227.20;;;;;;4936204;29;20047;-76
2021/11/19 02:22:46;;;;;;;42.85;26.33;;;103.20;2227.20;;;;;;4932937;29;20043;-76
2021/11/19 02:25:17;;;;;;;52.47;31.88;;;103.20;2227.20;;;;;;4935817;29;20190;-76
2021/11/19 02:27:51;;;;;;;40.65;27.73;;;103.20;2227.20;;;;;;4936227;29;20530;-76
2021/11/19 02:30:23;;;;;;;42.33;25.10;;;103.30;2227.20;;;;;;4952361;28;20090;-76
2021/11/19 02:32:57;;;;;;;44.72;26.73;;;103.30;2227.20;;;;;;4973140;28;20031;-76
2021/11/19 02:35:31;;;;;;;43.72;25.45;;;103.30;2227.20;;;;;;4991286;28;20033;-76
2021/11/19 02:38:05;;;;;;;39.03;23.70;;;103.30;2227.20;;;;;;4974289;28;20038;-77
2021/11/19 02:40:34;;;;;;;42.85;25.17;;;103.30;2227.20;;;;;;4993331;28;20164;-76
2021/11/19 02:43:22;;;;;;;38.97;23.00;;;103.30;2227.20;;;;;;4994023;28;20132;-76
2021/11/19 02:45:50;;;;;;;37.47;25.98;;;103.30;2227.20;;;;;;4993114;28;20120;-76
2021/11/19 02:48:20;;;;;;;34.35;20.75;;;103.30;2227.20;;;;;;4992688;28;20038;-76
2021/11/19 02:50:46;;;;;;;38.15;23.50;;;103.30;2227.20;;;;;;4982343;28;20026;-76
2021/11/19 02:53:13;;;;;;;36.30;22.70;;;128.00;2252.80;;;;;;5070599;28;20032;-76
2021/11/19 02:55:42;;;;;;;39.72;23.65;;;128.00;2252.80;;;;;;5070739;28;20021;-76
2021/11/19 02:58:11;;;;;;;43.38;26.25;;;128.00;2252.80;;;;;;5070542;28;20046;-76
2021/11/19 03:00:50;;;;;;;40.90;25.92;;;128.00;2252.80;;;;;;5070701;28;20028;-76
2021/11/19 03:03:17;;;;;;;35.92;24.75;;;103.30;2227.20;;;;;;5071311;28;20399;-76
2021/11/19 03:05:42;;;;;;;41.35;25.67;;;103.30;2227.20;;;;;;5070457;28;20056;-76
2021/11/19 03:08:09;;;;;;;39.80;26.33;;;103.30;2227.20;;;;;;5070630;28;20083;-77
2021/11/19 03:10:42;;;;;;;35.00;23.70;;;103.30;2227.20;;;;;;5070244;28;20138;-76
2021/11/19 03:13:10;;;;;;;42.72;24.77;;;103.30;2227.20;;;;;;5070682;28;20098;-76
2021/11/19 03:15:40;;;;;;;43.47;25.52;;;103.30;2227.20;;;;;;5087841;28;20046;-76
2021/11/19 03:18:06;;;;;;;44.92;28.13;;;103.20;2227.20;;;;;;5073837;28;20081;-76
2021/11/19 03:20:32;;;;;;;40.88;27.67;;;103.20;2227.20;;;;;;5091620;28;20025;-77
2021/11/19 03:22:59;;;;;;;45.40;25.75;;;103.20;2227.20;;;;;;5091711;28;20063;-76
2021/11/19 03:25:29;;;;;;;47.80;28.42;;;103.10;2227.20;;;;;;5073791;28;20078;-76
2021/11/19 03:27:55;;;;;;;41.00;27.25;;;103.10;2227.20;;;;;;5073305;28;20028;-76
2021/11/19 03:30:23;;;;;;;51.33;27.70;;;103.10;2227.20;;;;;;5073338;28;20036;-76
2021/11/19 03:32:50;;;;;;;46.05;28.30;;;103.00;2227.20;;;;;;5073328;28;20110;-76
2021/11/19 03:35:18;;;;;;;44.53;29.52;;;103.00;2227.20;;;;;;5073876;28;20055;-76
2021/11/19 03:37:47;;;;;;;44.92;29.05;;;102.90;2227.20;;;;;;5073582;28;20020;-76
2021/11/19 03:40:16;;;;;;;46.70;29.42;;;102.90;2227.20;;;;;;5073320;28;20386;-76
2021/11/19 03:42:42;;;;;;;47.97;28.60;;;102.90;2227.20;;;;;;5073621;28;20109;-77
2021/11/19 03:45:12;;;;;;;47.20;29.77;;;102.90;2227.20;;;;;;5072263;28;20115;-77
2021/11/19 03:47:42;;;;;;;50.22;28.63;;;102.80;2227.20;;;;;;5091121;28;20107;-76
2021/11/19 03:50:13;;;;;;;45.17;28.27;;;102.80;2227.20;;;;;;5072645;28;20467;-77
2021/11/19 03:52:41;;;;;;;52.40;29.48;;;102.80;2227.20;;;;;;5073280;28;20035;-77
2021/11/19 03:55:20;;;;;;;53.40;30.23;;;102.70;2227.20;;;;;;5077010;28;20080;-77
2021/11/19 03:57:48;;;;;;;44.08;27.40;;;102.70;2227.20;;;;;;5094319;28;20031;-77
2021/11/19 04:00:43;;;;;;;42.53;26.85;;;102.70;2227.20;;;;;;5094561;28;20485;-77
2021/11/19 04:03:10;;;;;;;56.50;29.77;;;102.70;2227.20;;;;;;5074688;28;20550;-77
2021/11/19 04:05:37;;;;;;;44.33;30.02;;;102.70;2227.20;;;;;;5094840;28;20020;-77
2021/11/19 04:08:05;;;;;;;53.03;33.17;;;102.70;2227.20;;;;;;5076474;28;20024;-77
2021/11/19 04:10:31;;;;;;;56.70;30.73;;;102.70;2227.20;;;;;;5094248;28;20020;-75
2021/11/19 04:12:57;;;;;;;48.17;30.00;;;102.70;2227.20;;;;;;5094450;28;20020;-78
2021/11/19 04:15:26;;;;;;;49.42;31.13;;;102.80;2227.20;;;;;;5074703;28;20036;-78
2021/11/19 04:17:52;;;;;;;49.22;29.15;;;102.80;2227.20;;;;;;5075552;28;20050;-77
2021/11/19 04:20:20;;;;;;;47.47;30.48;;;102.80;2227.20;;;;;;5076280;28;20389;-77
2021/11/19 04:22:47;;;;;;;45.10;27.55;;;102.90;2227.20;;;;;;5093297;28;20060;-77
2021/11/19 04:25:15;;;;;;;53.42;27.75;;;102.90;2227.20;;;;;;5076805;28;20027;-77
2021/11/19 04:27:41;;;;;;;43.00;28.52;;;102.90;2227.20;;;;;;5076174;28;20032;-77
2021/11/19 04:30:10;;;;;;;47.80;28.50;;;102.90;2227.20;;;;;;5094092;28;20111;-78
2021/11/19 04:32:36;;;;;;;48.28;27.40;;;102.90;2227.20;;;;;;5075964;28;20115;-78
2021/11/19 04:35:03;;;;;;;43.42;26.85;;;103.00;2227.20;;;;;;5076426;28;20020;-77
2021/11/19 04:37:29;;;;;;;47.05;26.63;;;102.90;2227.20;;;;;;5075283;28;20071;-77
2021/11/19 04:39:55;;;;;;;47.65;28.60;;;103.00;2227.20;;;;;;5094443;28;20044;-78
2021/11/19 04:42:22;;;;;;;39.22;26.17;;;103.00;2227.20;;;;;;5075805;28;20052;-77
2021/11/19 04:44:48;;;;;;;47.95;29.38;;;103.00;2227.20;;;;;;5076003;28;20040;-78
2021/11/19 04:47:13;;;;;;;46.25;28.60;;;103.10;2227.20;;;;;;5094549;28;20090;-78
2021/11/19 04:49:40;;;;;;;46.08;27.95;;;103.10;2227.20;;;;;;5075750;28;20440;-77
2021/11/19 04:52:11;;;;;;;43.97;26.42;;;103.10;2227.20;;;;;;5076225;28;20033;-76
2021/11/19 04:54:37;;;;;;;44.85;27.52;;;103.10;2227.20;;;;;;5075987;28;20051;-76
2021/11/19 04:57:03;;;;;;;46.33;25.33;;;103.20;2227.20;;;;;;5076083;28;20059;-76
2021/11/19 04:59:31;;;;;;;41.63;25.60;;;103.20;2227.20;;;;;;5075886;28;20107;-76
2021/11/19 05:02:02;;;;;;;47.33;26.38;;;103.20;2227.20;;;;;;5076027;28;20111;-77
2021/11/19 05:04:28;;;;;;;49.55;27.45;;;103.20;2227.20;;;;;;5075395;28;20032;-76
2021/11/19 05:06:54;;;;;;;38.50;25.60;;;103.20;2227.20;;;;;;5075857;28;20024;-76
2021/11/19 05:09:20;;;;;;;46.20;25.85;;;128.00;2252.80;;;;;;5075398;28;20058;-76
2021/11/19 05:11:54;;;;;;;44.25;27.83;;;103.20;2227.20;;;;;;5093727;28;20039;-76
2021/11/19 05:14:21;;;;;;;45.78;27.20;;;103.20;2227.20;;;;;;5076084;28;20752;-77
2021/11/19 05:16:48;;;;;;;42.00;26.52;;;103.20;2227.20;;;;;;5094788;28;20024;-77
2021/11/19 05:19:14;;;;;;;44.75;26.05;;;103.20;2227.20;;;;;;5076446;28;20028;-76
2021/11/19 05:21:40;;;;;;;44.90;28.92;;;103.20;2227.20;;;;;;5075637;28;20028;-76
2021/11/19 05:24:08;;;;;;;37.00;24.40;;;103.20;2227.20;;;;;;5075641;28;20119;-76
2021/11/19 05:26:38;;;;;;;54.15;27.50;;;103.20;2227.20;;;;;;5094052;28;20023;-77
2021/11/19 05:29:05;;;;;;;47.55;28.50;;;103.30;2227.20;;;;;;5075212;28;20024;-77
2021/11/19 05:31:31;;;;;;;41.47;26.60;;;103.30;2227.20;;;;;;5075446;28;20020;-77
2021/11/19 05:33:57;;;;;;;54.83;27.25;;;103.20;2227.20;;;;;;5075196;28;20019;-77
2021/11/19 05:36:23;;;;;;;43.70;25.25;;;103.20;2227.20;;;;;;5075099;28;20123;-77
2021/11/19 05:38:49;;;;;;;44.25;28.20;;;103.20;2227.20;;;;;;5093210;28;20107;-77
2021/11/19 05:41:18;;;;;;;47.20;27.77;;;103.20;2227.20;;;;;;5074924;28;20046;-77
2021/11/19 05:43:46;;;;;;;48.97;27.70;;;103.20;2227.20;;;;;;5074986;28;20034;-76
2021/11/19 05:46:13;;;;;;;45.75;27.52;;;103.20;2227.20;;;;;;5075012;28;20035;-76
2021/11/19 05:48:40;;;;;;;47.35;28.65;;;103.10;2227.20;;;;;;5074908;28;20082;-77
2021/11/19 05:51:07;;;;;;;50.90;30.98;;;103.20;2227.20;;;;;;5074953;28;20052;-76
2021/11/19 05:53:33;;;;;;;46.88;27.48;;;103.20;2227.20;;;;;;5075161;28;20028;-76
2021/11/19 05:55:59;;;;;;;44.72;27.55;;;103.20;2227.20;;;;;;5074813;28;20473;-77
2021/11/19 05:58:25;;;;;;;44.22;26.20;;;103.20;2227.20;;;;;;5074913;28;20114;-77
2021/11/19 06:01:00;;;;;;;43.88;25.63;;;103.20;2227.20;;;;;;5074178;28;20020;-77
2021/11/19 06:03:26;;;;;;;46.55;27.20;;;103.20;2227.20;;;;;;5074390;28;20062;-77
2021/11/19 06:05:52;;;;;;;36.47;23.08;;;103.20;2227.20;;;;;;5074723;28;20081;-76
2021/11/19 06:08:19;;;;;;;45.95;26.13;;;103.30;2227.20;;;;;;5092576;28;20036;-76
2021/11/19 06:10:52;;;;;;;46.10;26.45;;;103.30;2227.20;;;;;;5094470;28;20028;-77
2021/11/19 06:13:33;;;;;;;42.45;25.30;;;103.30;2227.20;;;;;;5074126;28;20035;-76
2021/11/19 06:16:02;;;;;;;45.58;26.48;;;103.30;2227.20;;;;;;5074334;28;20020;-76
2021/11/19 06:18:35;;;;;;;50.08;27.80;;;128.00;2252.80;;;;;;5092501;28;20038;-77
2021/11/19 06:21:09;;;;;;;44.65;28.30;;;128.00;2252.80;;;;;;5091442;28;20048;-75
2021/11/19 06:23:46;;;;;;;47.97;30.63;;;128.00;2252.80;;;;;;5072383;28;20047;-75
2021/11/19 06:26:15;;;;;;;50.30;27.52;;;128.10;2252.80;;;;;;5087765;28;20043;-75
2021/11/19 06:28:45;;;;;;;58.47;33.90;;;128.20;2252.80;;;;;;5091997;28;20169;-76
2021/11/19 06:31:14;;;;;;;49.08;30.80;;;128.30;2252.80;;;;;;5091158;28;20028;-76
2021/11/19 06:33:41;;;;;;;63.50;34.55;;;128.40;2252.80;;;;;;5073531;28;20524;-76
2021/11/19 06:36:08;;;;;;;53.13;33.25;;;128.50;2252.80;;;;;;5091910;28;20023;-77
2021/11/19 06:38:35;;;;;;;54.15;30.13;;;128.50;2252.80;;;;;;5073276;28;20024;-74
2021/11/19 06:41:02;;;;;;;52.40;31.15;;;128.50;2252.80;;;;;;5072046;28;20514;-75
2021/11/19 06:43:28;;;;;;;63.22;34.90;;;128.70;2252.80;;;;;;5107740;28;20039;-75
2021/11/19 06:45:54;;;;;;;57.25;32.47;;;128.80;2252.80;;;;;;5094379;28;20368;-76
2021/11/19 06:48:20;;;;;;;59.63;32.75;;;153.60;2252.80;;;;;;5088291;28;20068;-75
2021/11/19 06:50:46;;;;;;;41.88;28.50;;;153.70;2252.80;;;;;;5070575;28;20492;-74
2021/11/19 06:53:13;;;;;;;47.60;28.35;;;153.80;2252.80;;;;;;5073309;28;20078;-75
2021/11/19 06:55:40;;;;;;;43.45;26.10;;;154.00;2252.80;;;;;;5088066;28;20441;-75
2021/11/19 06:58:07;;;;;;;45.92;27.77;;;154.00;2252.80;;;;;;5091599;28;20093;-75
2021/11/19 07:00:40;;;;;;;58.10;26.92;;;154.00;2252.80;;;;;;5088996;28;20487;-75
2021/11/19 07:03:07;;;;;;;39.03;24.08;;;154.10;2252.80;;;;;;5073914;28;20119;-74
2021/11/19 07:05:33;;;;;;;37.65;24.10;;;154.20;2252.80;;;;;;5091180;28;20049;-74
2021/11/19 07:08:05;;;;;;;40.35;25.60;;;154.30;2252.80;;;;;;5091366;28;20032;-75
2021/11/19 07:10:33;;;;;;;43.92;28.77;;;154.40;2252.80;;;;;;5091190;28;20016;-74
2021/11/19 07:12:58;;;;;;;37.28;24.38;;;154.50;2252.80;;;;;;5072841;28;20036;-75
2021/11/19 07:15:24;;;;;;;38.45;24.52;;;179.20;2252.80;;;;;;5072431;28;20036;-74
2021/11/19 07:17:51;;;;;;;42.05;24.20;;;179.40;2252.80;;;;;;5091431;28;20035;-74
2021/11/19 07:20:20;;;;;;;37.15;23.40;;;179.40;2252.80;;;;;;5073311;28;20127;-74
2021/11/19 07:22:46;;;;;;;38.42;23.63;;;179.50;2252.80;;;;;;5090993;28;20129;-74
2021/11/19 07:25:19;;;;;;;37.25;21.77;;;179.90;2252.80;;;;;;5088336;28;20474;-74
2021/11/19 07:27:47;;;;;;;38.33;22.90;;;180.00;2252.80;;;;;;5086736;28;20107;-74
2021/11/19 07:30:19;;;;;;;41.60;24.83;;;180.00;2252.80;;;;;;5090951;28;20025;-74
2021/11/19 07:32:46;;;;;;;35.30;22.15;;;179.90;2252.80;;;;;;5074993;28;20074;-74
2021/11/19 07:35:12;;;;;;;32.95;22.45;;;180.00;2252.80;;;;;;5076618;28;20027;-74
2021/11/19 07:37:39;;;;;;;33.72;21.45;;;180.00;2252.80;;;;;;5076572;28;20048;-73
2021/11/19 07:40:10;;;;;;;34.88;21.73;;;180.10;2252.80;;;;;;5094182;28;20043;-73
2021/11/19 07:42:36;;;;;;;34.80;22.23;;;180.00;2252.80;;;;;;5076111;28;20062;-74
2021/11/19 07:45:04;;;;;;;36.10;21.67;;;180.00;2252.80;;;;;;5076239;28;20112;-73
2021/11/19 07:47:30;;;;;;;36.75;22.48;;;180.10;2252.80;;;;;;5094315;28;20493;-74
2021/11/19 07:49:56;;;;;;;36.17;21.55;;;180.00;2252.80;;;;;;5076881;28;20024;-74
2021/11/19 07:52:22;;;;;;;38.50;22.92;;;204.80;2252.80;;;;;;5075991;28;20116;-74
2021/11/19 07:54:48;;;;;;;34.15;21.08;;;204.90;2252.80;;;;;;5094794;28;20429;-74
2021/11/19 07:57:14;;;;;;;33.40;22.33;;;204.90;2252.80;;;;;;5076492;28;20466;-73
2021/11/19 07:59:40;;;;;;;40.30;21.33;;;205.30;2252.80;;;;;;5094742;28;20423;-74
2021/11/19 08:02:07;;;;;;;34.28;22.00;;;205.00;2252.80;;;;;;5094707;28;20030;-74
2021/11/19 08:04:35;;;;;;;33.28;20.80;;;205.00;2252.80;;;;;;5076609;28;20034;-74
2021/11/19 08:07:02;;;;;;;41.80;22.73;;;205.10;2252.80;;;;;;5093555;28;20099;-74
2021/11/19 08:09:28;;;;;;;29.92;22.45;;;205.20;2252.80;;;;;;5075897;28;20047;-76
2021/11/19 08:11:54;;;;;;;37.15;22.27;;;205.30;2252.80;;;;;;5076521;28;20482;-75
2021/11/19 08:14:20;;;;;;;32.38;20.75;;;205.50;2252.80;;;;;;5076241;28;20034;-74
2021/11/19 08:16:48;;;;;;;41.83;25.65;;;230.40;2252.80;;;;;;5094751;28;20055;-74
2021/11/19 08:19:27;;;;;;;41.92;26.08;;;230.40;2252.80;;;;;;5076057;28;20024;-74
2021/11/19 08:21:55;;;;;;;36.28;23.55;;;230.40;2252.80;;;;;;5087438;28;20391;-74
2021/11/19 08:24:21;;;;;;;43.78;22.60;;;230.60;2252.80;;;;;;5092900;28;20084;-74
2021/11/19 08:26:52;;;;;;;36.28;21.65;;;230.60;2252.80;;;;;;5090904;28;20036;-74
2021/11/19 08:29:22;;;;;;;31.90;20.48;;;230.80;2252.80;;;;;;5094226;28;20012;-73
2021/11/19 08:31:48;;;;;;;29.42;19.08;;;231.00;2252.80;;;;;;5094226;28;20031;-74
2021/11/19 08:34:14;;;;;;;35.45;23.92;;;231.00;2252.80;;;;;;5076567;28;20032;-73
2021/11/19 08:36:40;;;;;;;28.35;17.92;;;231.20;2252.80;;;;;;5093453;28;20368;-74
2021/11/19 08:39:08;;;;;;;33.42;20.65;;;231.30;2252.80;;;;;;5094686;28;20020;-74
2021/11/19 08:41:34;;;;;;;31.38;19.55;;;256.10;2252.80;;;;;;5093894;28;20048;-74
2021/11/19 08:44:01;;;;;;;27.90;19.27;;;256.40;2252.80;;;;;;5093801;28;20170;-74
2021/11/19 08:46:34;;;;;;;34.50;20.13;;;256.70;2252.80;;;;;;5075806;28;20660;-74
2021/11/19 08:49:02;;;;;;;30.30;21.00;;;256.60;2252.80;;;;;;5093987;28;20031;-74
2021/11/19 08:51:29;;;;;;;34.65;21.10;;;256.60;2252.80;;;;;;5094350;28;20058;-74
2021/11/19 08:54:05;;;;;;;30.48;17.55;;;256.80;2252.80;;;;;;5093806;28;20050;-73
2021/11/19 08:56:32;;;;;;;41.17;20.75;;;281.70;2278.40;;;;;;5094224;28;20141;-74
2021/11/19 08:58:59;;;;;;;29.55;18.95;;;281.70;2278.40;;;;;;5093947;28;20024;-73
2021/11/19 09:01:24;;;;;;;31.02;17.42;;;281.90;2278.40;;;;;;5075506;28;20031;-73
2021/11/19 09:03:51;;;;;;;27.40;17.58;;;281.90;2278.40;;;;;;5075872;28;20035;-74
2021/11/19 09:06:18;;;;;;;28.70;16.20;;;282.00;2278.40;;;;;;5075494;28;20070;-74
2021/11/19 09:08:45;;;;;;;21.30;14.93;;;282.10;2278.40;;;;;;5075194;28;20459;-74
2021/11/19 09:11:16;;;;;;;29.40;17.75;;;281.90;2278.40;;;;;;5075492;28;20035;-73
2021/11/19 09:13:42;;;;;;;26.27;18.10;;;282.10;2278.40;;;;;;5093998;28;20070;-74
2021/11/19 09:16:12;;;;;;;24.85;18.48;;;282.20;2278.40;;;;;;5075217;28;20020;-73
2021/11/19 09:18:59;;;;;;;24.75;17.48;;;282.40;2278.40;;;;;;5075734;28;20051;-73
2021/11/19 09:21:34;;;;;;;29.67;17.65;;;307.20;2304.00;;;;;;5093853;28;20487;-73
2021/11/19 09:24:08;;;;;;;33.08;20.52;;;307.20;2304.00;;;;;;5092843;28;20040;-72
2021/11/19 09:26:44;;;;;;;29.30;16.90;;;307.40;2304.00;;;;;;5075169;28;20036;-75
2021/11/19 09:29:15;;;;;;;23.85;15.68;;;307.40;2304.00;;;;;;5092235;28;20074;-73
2021/11/19 09:31:43;;;;;;;26.02;17.08;;;307.40;2304.00;;;;;;5093145;28;20016;-73
2021/11/19 09:34:09;;;;;;;27.23;16.58;;;307.70;2304.00;;;;;;5074404;28;20499;-74
2021/11/19 09:36:36;;;;;;;29.65;20.95;;;307.80;2304.00;;;;;;5074871;28;20020;-75
2021/11/19 09:39:06;;;;;;;27.50;19.02;;;307.90;2304.00;;;;;;5074425;28;20565;-76
2021/11/19 09:41:45;;;;;;;22.42;15.18;;;308.00;2304.00;;;;;;5091215;28;20048;-75
2021/11/19 09:44:14;;;;;;;20.75;14.02;;;333.00;2329.60;;;;;;5092697;28;20032;-75
2021/11/19 09:46:58;;;;;;;21.95;14.02;;;333.70;2329.60;;;;;;5075034;28;20024;-75
2021/11/19 09:50:02;;;;;;;20.48;13.38;;;333.70;2329.60;;;;;;5092490;28;20024;-75
2021/11/19 09:52:54;;;;;;;18.55;11.55;;;333.30;2329.60;;;;;;5092121;28;20031;-75
2021/11/19 09:55:27;;;;;;;17.42;12.27;;;333.30;2329.60;;;;;;5079271;28;20055;-77
2021/11/19 09:58:17;;;;;;;23.15;13.80;;;333.50;2329.60;;;;;;5101321;28;20019;-75
2021/11/19 10:01:09;;;;;;;24.00;14.48;;;333.70;2329.60;;;;;;5104054;28;20103;-75
2021/11/19 10:03:53;;;;;;;23.92;12.75;;;333.70;2329.60;;;;;;5101030;28;20023;-75
2021/11/19 10:06:34;;;;;;;22.70;12.43;;;333.60;2329.60;;;;;;5106503;28;20024;-75
2021/11/19 10:09:11;;;;;;;18.42;11.45;;;333.50;2329.60;;;;;;5083059;28;20479;-76
2021/11/19 10:11:45;;;;;;;23.45;15.60;;;333.30;2329.60;;;;;;5105122;28;20019;-74
2021/11/19 10:14:24;;;;;;;22.38;14.85;;;333.30;2329.60;;;;;;5108869;28;20035;-75
2021/11/19 10:17:09;;;;;;;23.27;16.25;;;333.40;2329.60;;;;;;5087813;28;20020;-75
2021/11/19 10:19:44;;;;;;;21.15;14.95;;;333.40;2329.60;;;;;;5092283;28;20442;-76
2021/11/19 10:22:22;;;;;;;18.48;13.52;;;333.50;2329.60;;;;;;5097202;28;20428;-76
2021/11/19 10:25:02;;;;;;;21.27;13.73;;;333.40;2329.60;;;;;;5094201;28;20047;-75
2021/11/19 10:27:31;;;;;;;22.48;14.02;;;333.30;2329.60;;;;;;5101236;28;20027;-75
2021/11/19 10:30:28;;;;;;;19.55;12.13;;;333.20;2329.60;;;;;;5078688;28;20027;-75
2021/11/19 10:32:59;;;;;;;17.73;12.30;;;333.10;2329.60;;;;;;5075567;28;20019;-75
2021/11/19 10:35:31;;;;;;;21.52;14.68;;;333.10;2329.60;;;;;;5076501;28;20016;-75
2021/11/19 10:38:22;;;;;;;16.25;11.70;;;333.30;2329.60;;;;;;5096073;28;20038;-75
2021/11/19 10:41:26;;;;;;;12.45;9.60;;;333.30;2329.60;;;;;;5097120;28;20368;-76
2021/11/19 10:44:11;;;;;;;16.92;9.95;;;333.20;2329.60;;;;;;5098471;28;20470;-76
2021/11/19 10:46:38;;;;;;;15.30;10.35;;;333.30;2329.60;;;;;;5100106;28;20027;-75
2021/11/19 10:49:18;;;;;;;18.75;12.57;;;333.60;2329.60;;;;;;5104383;28;20024;-75
2021/11/19 10:52:10;;;;;;;18.48;12.18;;;358.60;2329.60;;;;;;5089600;28;20105;-75
2021/11/19 10:55:01;;;;;;;17.25;12.55;;;358.50;2329.60;;;;;;5089478;28;20020;-76
2021/11/19 10:57:59;;;;;;;25.15;14.18;;;358.90;2329.60;;;;;;5096344;28;20032;-76
2021/11/19 11:00:32;;;;;;;21.65;14.15;;;358.90;2329.60;;;;;;5097755;28;20039;-75
2021/11/19 11:03:06;;;;;;;15.85;12.00;;;358.40;2329.60;;;;;;5099609;28;20035;-76
2021/11/19 11:05:41;;;;;;;17.83;11.38;;;333.70;2329.60;;;;;;5093980;28;20554;-75
2021/11/19 11:08:19;;;;;;;13.60;9.83;;;333.70;2329.60;;;;;;5101084;28;20066;-76
2021/11/19 11:11:00;;;;;;;15.55;10.88;;;333.50;2329.60;;;;;;5105883;28;20363;-76
2021/11/19 11:13:31;;;;;;;15.50;10.55;;;333.30;2329.60;;;;;;5104366;28;20023;-76
2021/11/19 11:16:05;;;;;;;17.20;11.05;;;333.20;2329.60;;;;;;5087004;28;20077;-75
2021/11/19 11:19:02;;;;;;;18.75;11.20;;;333.20;2329.60;;;;;;5087097;28;20016;-75
2021/11/19 11:21:35;;;;;;;19.35;11.15;;;333.10;2329.60;;;;;;5077188;28;20024;-75
2021/11/19 11:24:26;;;;;;;18.67;11.68;;;333.10;2329.60;;;;;;5083534;28;20024;-76
2021/11/19 11:27:10;;;;;;;17.17;10.82;;;333.10;2329.60;;;;;;5079592;28;20487;-75
2021/11/19 11:29:42;;;;;;;17.40;11.13;;;333.00;2329.60;;;;;;5104112;28;20038;-75
2021/11/19 11:32:26;;;;;;;15.30;10.43;;;333.00;2329.60;;;;;;5095783;28;20089;-75
2021/11/19 11:35:15;;;;;;;22.33;11.45;;;332.90;2329.60;;;;;;5105152;28;20031;-75
2021/11/19 11:38:12;;;;;;;14.07;9.27;;;332.90;2329.60;;;;;;5076972;28;20054;-75
2021/11/19 11:40:41;;;;;;;16.97;10.23;;;333.00;2329.60;;;;;;5099252;28;20019;-76
2021/11/19 11:43:51;;;;;;;17.83;11.30;;;333.00;2329.60;;;;;;5078925;28;20350;-76
2021/11/19 11:46:29;;;;;;;15.35;10.48;;;333.10;2329.60;;;;;;5081040;28;20032;-76
2021/11/19 11:49:08;;;;;;;13.40;9.88;;;333.10;2329.60;;;;;;5075139;28;20039;-76
2021/11/19 11:51:43;;;;;;;14.75;8.40;;;333.00;2329.60;;;;;;5072200;28;20021;-76
2021/11/19 11:54:29;;;;;;;18.25;9.80;;;308.10;2304.00;;;;;;5074343;28;20012;-76
2021/11/19 11:57:31;;;;;;;18.13;11.35;;;308.00;2304.00;;;;;;5054634;28;20021;-76
2021/11/19 12:00:03;;;;;;;19.23;11.10;;;308.00;2304.00;;;;;;5054188;28;20074;-76
2021/11/19 12:02:45;;;;;;;17.58;10.25;;;308.00;2304.00;;;;;;5054730;28;20012;-76
2021/11/19 12:05:29;;;;;;;17.02;10.18;;;307.90;2304.00;;;;;;5071296;28;20463;-76
2021/11/19 12:08:14;;;;;;;27.90;18.15;;;308.00;2304.00;;;;;;5056715;28;20032;-76
2021/11/19 12:11:17;;;;;;;20.73;12.60;;;307.90;2304.00;;;;;;5074611;28;20410;-78
2021/11/19 12:13:52;;;;;;;21.35;12.40;;;308.00;2304.00;;;;;;5052981;28;20032;-77
2021/11/19 12:16:41;;;;;;;21.17;13.57;;;307.80;2304.00;;;;;;5054007;28;20033;-78
2021/11/19 12:19:16;;;;;;;15.82;9.73;;;307.90;2304.00;;;;;;5068380;28;20035;-75
2021/11/19 12:21:50;;;;;;;14.25;9.52;;;307.80;2304.00;;;;;;5070775;28;20492;-77